Prospector, Canada
Current Conditions -  °F | °C
As of 1:00 PM on Monday 20 Oct 2014 (Local Time) from CYQD Reporting Station
Broken Clouds Broken Clouds  
Wind Chill:   Ceiling: 1000
Heat Index:   Visibility: 15mi
Dew Point:   Wind: 25mph
Humidity: 76%   Direction: 140°SE
Pressure: 29.93"   Gusts: 31mph
Location:  52.95°N, 101.27°W
Report Text: CYQD 201800Z 14022G27KT 15SM BKN010 08/04 A2993 RMK SC6 SLP147
Loading
Personal Weather Stations






























Interactive Weather Map
Tropical Storm Tracking
New forecast layout! Learn more

10-Day Weather Forecast

Advertisements
Track Severe Weather on mobile